createdAt,value
2023-02-27T00:02:45.853Z,81.34
2023-02-27T00:07:49.005Z,81.35
2023-02-27T00:12:51.723Z,80.99
2023-02-27T00:17:54.448Z,81.13
2023-02-27T00:22:57.097Z,80.48
2023-02-27T00:27:59.688Z,80.23
2023-02-27T00:33:02.610Z,80.50
2023-02-27T00:38:05.913Z,79.88
2023-02-27T00:43:08.673Z,80.01
2023-02-27T00:48:11.495Z,80.02
2023-02-27T00:53:14.072Z,79.78
2023-02-27T00:58:16.917Z,79.30
2023-02-27T01:03:19.687Z,79.25
2023-02-27T01:08:22.386Z,78.85
2023-02-27T01:13:25.056Z,78.46
2023-02-27T01:18:28.458Z,77.88
2023-02-27T01:23:31.622Z,78.07
2023-02-27T01:28:34.576Z,77.92
2023-02-27T01:33:37.227Z,78.27
2023-02-27T01:38:39.854Z,77.68
2023-02-27T01:43:57.963Z,78.20
2023-02-27T01:49:24.289Z,78.11
2023-02-27T01:54:27.281Z,78.36
2023-02-27T01:59:30.359Z,78.00
2023-02-27T02:04:39.581Z,77.85
2023-02-27T02:09:52.985Z,78.51
2023-02-27T02:14:55.754Z,78.76
2023-02-27T02:20:32.566Z,78.64
2023-02-27T02:25:55.396Z,78.79
2023-02-27T02:31:20.337Z,78.92
2023-02-27T02:36:52.129Z,78.76
2023-02-27T02:41:58.958Z,78.47
2023-02-27T02:47:17.729Z,78.97
2023-02-27T02:52:20.479Z,79.37
2023-02-27T02:57:41.189Z,79.32
2023-02-27T03:02:51.010Z,79.41
2023-02-27T03:07:57.216Z,79.39
2023-02-27T03:13:09.090Z,79.47
2023-02-27T03:18:22.958Z,79.41
2023-02-27T03:23:31.801Z,79.07
2023-02-27T03:28:38.274Z,79.12
2023-02-27T03:33:51.218Z,80.02
2023-02-27T03:39:07.467Z,79.89
2023-02-27T03:44:29.018Z,79.67
2023-02-27T03:49:31.768Z,79.73
2023-02-27T03:54:39.833Z,80.05
2023-02-27T03:59:43.267Z,80.49
2023-02-27T04:04:46.754Z,80.34
2023-02-27T04:10:20.508Z,80.50
2023-02-27T04:15:41.704Z,80.23
2023-02-27T04:20:50.282Z,80.33
2023-02-27T04:26:22.509Z,80.64
2023-02-27T04:31:34.810Z,80.56
2023-02-27T04:36:48.189Z,80.75
2023-02-27T04:42:01.696Z,80.41
2023-02-27T04:47:08.510Z,80.62
2023-02-27T04:52:21.522Z,81.16
2023-02-27T04:57:32.257Z,81.10
2023-02-27T05:02:43.489Z,80.79
2023-02-27T05:07:54.662Z,80.89
2023-02-27T05:13:03.421Z,81.00
2023-02-27T05:18:12.658Z,80.75
2023-02-27T05:23:25.666Z,80.88
2023-02-27T05:28:35.206Z,80.76
2023-02-27T05:33:48.784Z,80.83
2023-02-27T05:39:00.353Z,80.75
2023-02-27T05:44:35.497Z,80.51
2023-02-27T05:49:44.208Z,80.71
2023-02-27T05:55:00.134Z,80.48
2023-02-27T06:00:18.219Z,80.45
2023-02-27T06:05:20.915Z,80.12
2023-02-27T06:10:24.329Z,80.26
2023-02-27T06:15:27.675Z,79.65
2023-02-27T06:20:30.522Z,79.26
2023-02-27T06:25:33.591Z,79.08
2023-02-27T06:30:36.872Z,78.83
2023-02-27T06:35:39.852Z,79.07
2023-02-27T06:40:42.839Z,78.70
2023-02-27T06:45:45.783Z,78.75
2023-02-27T06:50:53.834Z,78.48
2023-02-27T06:55:56.478Z,78.40
2023-02-27T07:01:01.108Z,78.57
2023-02-27T07:06:04.057Z,78.54
2023-02-27T07:11:06.709Z,78.02
2023-02-27T07:16:09.420Z,77.91
2023-02-27T07:21:12.079Z,77.16
2023-02-27T07:26:14.722Z,77.35
2023-02-27T07:31:18.046Z,77.37
2023-02-27T07:36:20.765Z,77.26
2023-02-27T07:41:30.443Z,76.52
2023-02-27T07:46:36.461Z,76.53
2023-02-27T07:51:39.483Z,75.96
2023-02-27T07:56:42.165Z,75.80
2023-02-27T08:01:44.837Z,75.56
2023-02-27T08:06:47.615Z,77.52
2023-02-27T08:11:50.305Z,75.04
2023-02-27T08:16:52.995Z,74.87
2023-02-27T08:21:55.907Z,74.70
2023-02-27T08:26:58.703Z,73.44
2023-02-27T08:32:02.598Z,74.31
2023-02-27T08:37:05.337Z,73.95
2023-02-27T08:42:08.215Z,73.31
2023-02-27T08:47:11.238Z,73.36
2023-02-27T08:52:13.885Z,73.47
2023-02-27T08:57:16.497Z,87.73
2023-02-27T09:02:19.469Z,86.70
2023-02-27T09:07:22.185Z,83.99
2023-02-27T09:12:24.785Z,81.49
2023-02-27T09:17:27.473Z,80.26
2023-02-27T09:22:30.183Z,80.13
2023-02-27T09:27:32.811Z,77.95
2023-02-27T09:32:35.609Z,77.34
2023-02-27T09:37:38.465Z,75.62
2023-02-27T09:42:46.453Z,74.70
2023-02-27T09:47:54.043Z,73.48
2023-02-27T09:52:57.483Z,72.49
2023-02-27T09:58:24.570Z,71.80
2023-02-27T10:03:57.892Z,70.06
2023-02-27T10:09:37.988Z,69.82
2023-02-27T10:14:46.721Z,69.58
2023-02-27T10:19:52.006Z,69.38
2023-02-27T10:25:03.552Z,68.42
2023-02-27T10:30:29.846Z,67.63
2023-02-27T10:35:37.774Z,67.85
2023-02-27T10:40:42.088Z,67.20
2023-02-27T10:45:44.852Z,67.43
2023-02-27T10:50:52.461Z,66.59
2023-02-27T10:56:04.121Z,67.58
2023-02-27T11:01:09.713Z,66.70
2023-02-27T11:06:22.844Z,67.53
2023-02-27T11:11:28.967Z,69.36
2023-02-27T11:16:46.382Z,72.03
2023-02-27T11:22:16.406Z,72.70
2023-02-27T11:27:22.131Z,73.73
2023-02-27T11:32:26.828Z,73.32
2023-02-27T11:37:36.946Z,73.20
2023-02-27T11:42:55.827Z,72.28
2023-02-27T11:48:21.815Z,71.90
2023-02-27T11:53:42.683Z,70.83
2023-02-27T11:59:11.475Z,70.50
2023-02-27T12:04:41.706Z,69.52
2023-02-27T12:15:44.164Z,67.67
2023-02-27T12:20:59.341Z,68.25
2023-02-27T12:26:10.621Z,67.88
2023-02-27T12:31:35.004Z,68.41
2023-02-27T12:36:37.704Z,68.11
2023-02-27T12:42:07.849Z,68.00
2023-02-27T12:48:08.881Z,68.73
2023-02-27T12:53:33.029Z,68.73
2023-02-27T12:58:57.145Z,68.69
2023-02-27T13:04:15.762Z,69.05
2023-02-27T13:09:38.570Z,69.20
2023-02-27T13:15:04.218Z,69.67
2023-02-27T13:20:22.273Z,70.32
2023-02-27T13:25:25.728Z,70.47
2023-02-27T13:30:35.968Z,71.12
2023-02-27T13:35:58.034Z,70.88
2023-02-27T13:41:36.394Z,71.18
2023-02-27T13:46:39.171Z,71.10
2023-02-27T13:51:45.898Z,71.80
2023-02-27T13:57:05.360Z,71.45
2023-02-27T14:02:11.286Z,71.71
2023-02-27T14:07:21.648Z,71.64
2023-02-27T14:12:46.458Z,71.93
2023-02-27T14:17:59.631Z,72.25
2023-02-27T14:23:15.626Z,72.21
2023-02-27T14:28:56.043Z,72.16
2023-02-27T14:34:05.417Z,72.22
2023-02-27T14:39:20.779Z,72.25
2023-02-27T14:44:28.732Z,72.61
2023-02-27T14:49:35.234Z,72.79
2023-02-27T14:54:38.535Z,73.43
2023-02-27T14:59:59.882Z,73.15
2023-02-27T15:05:02.391Z,73.25
2023-02-27T15:10:11.101Z,74.05
2023-02-27T15:15:21.919Z,74.54
2023-02-27T15:20:30.919Z,74.82
2023-02-27T15:25:40.058Z,74.99
2023-02-27T15:30:47.649Z,75.03
2023-02-27T15:35:50.496Z,75.32
2023-02-27T15:40:53.834Z,75.61
2023-02-27T15:45:58.443Z,75.75
2023-02-27T15:51:03.989Z,75.74
2023-02-27T15:56:12.152Z,75.83
2023-02-27T16:01:21.062Z,75.79
2023-02-27T16:06:31.035Z,75.99
2023-02-27T16:11:37.509Z,75.59
2023-02-27T16:16:40.224Z,76.35
2023-02-27T16:22:07.108Z,76.49
2023-02-27T16:27:30.120Z,76.83
2023-02-27T16:32:41.600Z,76.76
2023-02-27T16:37:46.017Z,76.31
2023-02-27T16:42:48.920Z,77.04
2023-02-27T16:47:54.630Z,76.63
2023-02-27T16:52:57.648Z,77.17
2023-02-27T16:58:00.293Z,76.92
2023-02-27T17:03:05.649Z,77.15
2023-02-27T17:08:10.666Z,76.51
2023-02-27T17:13:14.151Z,75.94
2023-02-27T17:18:16.864Z,75.05
2023-02-27T17:23:19.992Z,75.23
2023-02-27T17:28:23.741Z,74.51
2023-02-27T17:33:26.528Z,74.80
2023-02-27T17:38:29.218Z,74.54
2023-02-27T17:43:31.914Z,74.58
2023-02-27T17:48:35.691Z,75.07
2023-02-27T17:53:38.855Z,75.00
2023-02-27T17:58:45.522Z,75.44
2023-02-27T18:03:49.407Z,75.52
2023-02-27T18:08:52.561Z,76.36
2023-02-27T18:13:55.358Z,76.56
2023-02-27T18:18:58.006Z,77.05
2023-02-27T18:24:01.470Z,77.35
2023-02-27T18:29:07.788Z,77.53
2023-02-27T18:34:11.304Z,78.08
2023-02-27T18:39:14.779Z,78.21
2023-02-27T18:44:17.702Z,77.83
2023-02-27T18:49:20.392Z,77.85
2023-02-27T18:54:23.094Z,77.17
2023-02-27T18:59:25.710Z,77.55
2023-02-27T19:04:31.628Z,78.32
2023-02-27T19:09:34.748Z,78.76
2023-02-27T19:14:38.747Z,78.69
2023-02-27T19:19:41.864Z,79.50
2023-02-27T19:24:48.188Z,79.90
2023-02-27T19:29:51.714Z,79.88
2023-02-27T19:34:54.340Z,80.37
2023-02-27T19:39:57.727Z,80.75
2023-02-27T19:45:00.531Z,80.16
2023-02-27T19:50:05.149Z,80.21
2023-02-27T19:55:08.277Z,80.23
2023-02-27T20:00:13.433Z,79.93
2023-02-27T20:05:16.139Z,79.98
2023-02-27T20:10:19.559Z,80.31
2023-02-27T20:15:22.236Z,80.09
2023-02-27T20:20:24.933Z,80.22
2023-02-27T20:25:29.764Z,81.07
2023-02-27T20:30:32.632Z,81.33
2023-02-27T20:35:38.745Z,81.55
2023-02-27T20:40:41.433Z,81.52
2023-02-27T20:45:44.044Z,81.28
2023-02-27T20:50:46.920Z,82.31
2023-02-27T20:55:49.954Z,82.51
2023-02-27T21:00:52.648Z,83.17
2023-02-27T21:05:58.306Z,82.84
2023-02-27T21:11:16.442Z,83.99
2023-02-27T21:16:19.157Z,83.86
2023-02-27T21:21:28.599Z,84.26
2023-02-27T21:26:38.073Z,84.39
2023-02-27T21:31:45.242Z,84.85
2023-02-27T21:36:48.407Z,85.20
2023-02-27T21:41:50.984Z,85.15
2023-02-27T21:46:54.517Z,84.66
2023-02-27T21:51:57.346Z,84.48
2023-02-27T21:57:02.592Z,85.02
2023-02-27T22:02:05.830Z,84.80
2023-02-27T22:07:11.079Z,84.65
2023-02-27T22:12:15.872Z,85.16
2023-02-27T22:17:18.729Z,85.16
2023-02-27T22:22:21.386Z,85.27
2023-02-27T22:27:24.096Z,85.30
2023-02-27T22:32:26.774Z,85.17
2023-02-27T22:37:29.404Z,85.25
2023-02-27T22:42:31.962Z,84.82
2023-02-27T22:47:34.718Z,84.68
2023-02-27T22:52:37.895Z,85.61
2023-02-27T22:57:40.725Z,85.57
2023-02-27T23:02:43.412Z,84.62
2023-02-27T23:07:47.256Z,85.28
2023-02-27T23:12:49.941Z,84.80
2023-02-27T23:17:58.272Z,85.53
2023-02-27T23:23:01.281Z,86.31
2023-02-27T23:28:05.376Z,86.75
2023-02-27T23:33:07.990Z,87.94
2023-02-27T23:38:10.656Z,88.19
2023-02-27T23:43:32.776Z,88.02
2023-02-27T23:48:35.691Z,87.35
2023-02-27T23:53:40.433Z,86.83
2023-02-27T23:58:43.861Z,86.67
